Time;durP1;ratioP1;P1;durP2;ratioP2;P2;SDS_P1;SDS_P2;PMS_P1;PMS_P2;Temp;Humidity;BMP_temperature;BMP_pressure;BME280_temperature;BME280_humidity;BME280_pressure;Samples;Min_cycle;Max_cycle;Signal;HPM_P1;HPM_P2
2021/12/26 00:00:04;;;;;;;8.20;5.10;;;;;;;1.37;100.00;90455.03;5073839;28;20032;-69
2021/12/26 00:02:29;;;;;;;12.80;7.65;;;;;;;1.35;100.00;90446.66;5073778;28;20040;-69
2021/12/26 00:04:54;;;;;;;9.20;5.93;;;;;;;1.27;100.00;90444.56;5073406;28;20042;-69
2021/12/26 00:07:20;;;;;;;16.85;8.70;;;;;;;1.22;100.00;90444.56;5073411;28;20430;-69
2021/12/26 00:09:46;;;;;;;9.32;5.60;;;;;;;1.18;100.00;90448.75;5073674;28;20032;-69
2021/12/26 00:12:11;;;;;;;8.27;5.32;;;;;;;1.12;100.00;90455.06;5073376;28;20077;-69
2021/12/26 00:14:37;;;;;;;7.18;4.85;;;;;;;1.27;100.00;90457.66;5073686;28;20465;-69
2021/12/26 00:17:03;;;;;;;7.13;4.05;;;;;;;1.38;100.00;90459.22;5073591;28;20031;-68
2021/12/26 00:19:28;;;;;;;6.03;3.85;;;;;;;1.34;100.00;90460.78;5072814;28;20452;-69
2021/12/26 00:21:54;;;;;;;4.57;3.20;;;;;;;1.39;100.00;90468.63;5072065;28;20123;-69
2021/12/26 00:24:19;;;;;;;5.45;3.97;;;;;;;1.46;100.00;90474.41;5073521;28;20032;-69
2021/12/26 00:26:45;;;;;;;4.70;3.30;;;;;;;1.49;100.00;90473.88;5073030;28;20062;-69
2021/12/26 00:29:11;;;;;;;4.55;3.00;;;;;;;1.56;100.00;90465.72;5073324;28;20035;-69
2021/12/26 00:31:37;;;;;;;6.18;4.30;;;;;;;1.62;100.00;90471.75;5072950;28;20085;-69
2021/12/26 00:34:03;;;;;;;4.68;3.80;;;;;;;1.69;100.00;90474.88;5072871;28;20055;-69
2021/12/26 00:36:29;;;;;;;6.78;3.72;;;;;;;1.68;100.00;90481.19;5073297;28;20039;-68
2021/12/26 00:38:55;;;;;;;9.50;5.15;;;;;;;1.71;100.00;90483.25;5073155;28;20037;-68
2021/12/26 00:41:20;;;;;;;10.40;6.97;;;;;;;1.67;100.00;90488.25;5072619;28;20025;-69
2021/12/26 00:43:46;;;;;;;8.25;5.18;;;;;;;1.66;100.00;90484.06;5072800;28;20040;-68
2021/12/26 00:46:13;;;;;;;6.18;3.95;;;;;;;1.66;100.00;90467.56;5073107;28;20070;-68
2021/12/26 00:48:38;;;;;;;7.07;3.90;;;;;;;1.73;100.00;90478.53;5072675;28;20612;-68
2021/12/26 00:51:04;;;;;;;6.57;3.70;;;;;;;1.72;100.00;90477.75;5072871;28;20036;-68
2021/12/26 00:53:29;;;;;;;5.88;3.97;;;;;;;1.73;100.00;90473.28;5072276;28;20083;-68
2021/12/26 00:55:55;;;;;;;4.55;3.45;;;;;;;1.70;100.00;90463.34;5072122;28;20508;-69
2021/12/26 00:58:21;;;;;;;5.00;3.70;;;;;;;1.69;100.00;90456.53;5072684;28;20071;-68
2021/12/26 01:00:48;;;;;;;4.68;3.72;;;;;;;1.66;100.00;90465.72;5072622;28;20032;-68
2021/12/26 01:03:15;;;;;;;5.78;4.22;;;;;;;1.61;100.00;90454.47;5072289;28;20063;-68
2021/12/26 01:05:47;;;;;;;6.55;4.00;;;;;;;1.70;100.00;90453.63;5072727;28;20036;-68
2021/12/26 01:08:15;;;;;;;8.10;4.80;;;;;;;1.79;100.00;90454.66;5072202;28;20032;-69
2021/12/26 01:11:08;;;;;;;8.55;4.88;;;;;;;1.84;100.00;90437.34;5072038;28;20064;-69
2021/12/26 01:13:37;;;;;;;4.70;3.55;;;;;;;1.88;100.00;90459.34;5072518;28;20028;-68
2021/12/26 01:16:06;;;;;;;6.97;3.30;;;;;;;1.98;100.00;90460.09;5072452;28;20035;-69
2021/12/26 01:18:36;;;;;;;5.25;3.50;;;;;;;2.03;100.00;90457.47;5072039;28;20040;-68
2021/12/26 01:21:16;;;;;;;6.43;3.67;;;;;;;2.06;100.00;90445.66;5071903;28;20579;-69
2021/12/26 01:23:44;;;;;;;9.40;3.42;;;;;;;2.03;100.00;90446.97;5072306;28;20036;-69
2021/12/26 01:26:10;;;;;;;3.78;3.10;;;;;;;1.92;100.00;90444.66;5071894;28;20094;-69
2021/12/26 01:28:35;;;;;;;7.13;3.03;;;;;;;1.84;100.00;90440.75;5072312;28;20033;-69
2021/12/26 01:31:02;;;;;;;5.00;3.38;;;;;;;1.69;100.00;90444.19;5072049;28;20380;-69
2021/12/26 01:33:28;;;;;;;5.28;3.85;;;;;;;1.66;100.00;90446.56;5071448;28;20161;-69
2021/12/26 01:35:55;;;;;;;6.38;4.63;;;;;;;1.65;100.00;90450.25;5072105;28;20031;-68
2021/12/26 01:38:21;;;;;;;11.88;7.03;;;;;;;1.41;100.00;90437.72;5072041;28;20017;-68
2021/12/26 01:40:50;;;;;;;12.45;6.85;;;;;;;1.32;100.00;90441.94;5071176;28;20025;-69
2021/12/26 01:43:19;;;;;;;9.35;5.90;;;;;;;1.35;100.00;90446.66;5071856;28;20021;-69
2021/12/26 01:45:47;;;;;;;8.10;5.78;;;;;;;1.31;100.00;90444.81;5070371;28;20139;-69
2021/12/26 01:48:13;;;;;;;7.82;4.90;;;;;;;1.32;100.00;90433.28;5071511;28;20144;-69
2021/12/26 01:50:39;;;;;;;7.15;4.88;;;;;;;1.33;100.00;90440.09;5071724;28;20021;-69
2021/12/26 01:53:06;;;;;;;12.20;6.97;;;;;;;1.24;100.00;90436.44;5071787;28;20035;-69
2021/12/26 01:55:45;;;;;;;10.38;6.22;;;;;;;1.07;100.00;90424.41;5071351;28;20128;-69
2021/12/26 01:58:19;;;;;;;11.40;7.43;;;;;;;1.09;100.00;90426.75;5071288;28;20056;-69
2021/12/26 02:00:50;;;;;;;15.48;6.90;;;;;;;1.12;100.00;90427.03;5071582;28;20036;-68
2021/12/26 02:03:16;;;;;;;11.02;6.45;;;;;;;1.09;100.00;90416.28;5071180;28;20494;-69
2021/12/26 02:05:41;;;;;;;11.27;4.93;;;;;;;1.09;100.00;90416.28;5070728;28;20035;-69
2021/12/26 02:08:07;;;;;;;9.70;4.75;;;;;;;1.13;100.00;90412.88;5071514;28;20111;-69
2021/12/26 02:10:34;;;;;;;9.75;4.75;;;;;;;1.13;100.00;90407.66;5070798;28;20024;-69
2021/12/26 02:12:59;;;;;;;9.90;5.72;;;;;;;1.30;100.00;90415.22;5070871;28;20054;-69
2021/12/26 02:15:25;;;;;;;8.82;5.60;;;;;;;1.25;100.00;90404.72;5071461;28;20550;-69
2021/12/26 02:17:51;;;;;;;12.65;5.95;;;;;;;1.21;100.00;90398.44;5069814;28;20513;-69
2021/12/26 02:23:16;;;;;;;9.63;5.22;;;;;;;1.26;100.00;90406.28;5071078;28;20047;-69
2021/12/26 02:28:15;;;;;;;7.95;5.60;;;;;;;1.32;100.00;90407.88;5071438;28;20024;-68
2021/12/26 02:30:41;;;;;;;8.88;5.75;;;;;;;1.31;100.00;90402.91;5071233;28;20063;-68
2021/12/26 02:33:10;;;;;;;8.68;5.45;;;;;;;1.27;100.00;90400.03;5070798;28;20105;-68
2021/12/26 02:35:39;;;;;;;6.18;4.32;;;;;;;1.38;100.00;90398.94;5070991;28;20062;-69
2021/12/26 02:38:06;;;;;;;8.68;5.20;;;;;;;1.34;100.00;90403.16;5071217;28;20040;-68
2021/12/26 02:40:32;;;;;;;5.47;4.10;;;;;;;1.30;100.00;90399.50;5070964;28;20097;-69
2021/12/26 02:42:58;;;;;;;4.70;3.38;;;;;;;1.24;100.00;90395.28;5069693;28;20468;-68
2021/12/26 02:45:23;;;;;;;4.55;3.47;;;;;;;1.20;100.00;90395.06;5071093;28;20028;-68
2021/12/26 02:47:50;;;;;;;3.70;3.15;;;;;;;1.32;100.00;90405.25;5070475;28;20021;-68
2021/12/26 02:50:25;;;;;;;4.80;2.63;;;;;;;1.41;100.00;90402.84;5071048;28;20051;-68
2021/12/26 02:52:52;;;;;;;3.55;2.70;;;;;;;1.41;100.00;90401.03;5071061;28;20029;-68
2021/12/26 02:55:19;;;;;;;5.97;2.90;;;;;;;1.37;100.00;90401.81;5070652;28;20078;-69
2021/12/26 02:57:47;;;;;;;5.22;3.00;;;;;;;1.44;100.00;90397.88;5069745;28;20506;-69
2021/12/26 03:00:15;;;;;;;3.75;3.03;;;;;;;1.59;100.00;90401.53;5070579;28;20024;-68
2021/12/26 03:02:42;;;;;;;5.55;2.97;;;;;;;1.67;100.00;90406.19;5069089;28;20119;-69
2021/12/26 03:05:08;;;;;;;4.75;2.80;;;;;;;1.85;100.00;90407.44;5069622;28;20124;-68
2021/12/26 03:07:34;;;;;;;7.13;2.92;;;;;;;1.86;100.00;90399.31;5070934;28;20056;-69
2021/12/26 03:10:00;;;;;;;6.22;3.30;;;;;;;1.84;100.00;90390.91;5070339;28;20063;-69
2021/12/26 03:12:28;;;;;;;4.80;3.47;;;;;;;1.90;100.00;90387.25;5070650;28;20391;-68
2021/12/26 03:14:54;;;;;;;5.82;3.15;;;;;;;1.96;100.00;90383.53;5049492;28;20033;-68
2021/12/26 03:17:20;;;;;;;6.03;3.53;;;;;;;2.12;100.00;90394.72;5053038;28;20036;-68
2021/12/26 03:19:45;;;;;;;6.43;3.78;;;;;;;2.21;100.00;90397.56;5054620;28;20063;-69
2021/12/26 03:22:11;;;;;;;7.65;4.10;;;;;;;2.26;100.00;90406.19;5054613;28;20033;-69
2021/12/26 03:24:38;;;;;;;8.65;4.90;;;;;;;2.37;100.00;90393.81;5053974;28;20479;-68
2021/12/26 03:27:05;;;;;;;9.90;5.20;;;;;;;2.38;100.00;90405.88;5054575;28;20572;-69
2021/12/26 03:29:32;;;;;;;6.90;4.38;;;;;;;2.33;100.00;90405.88;5054435;28;20483;-69
2021/12/26 03:31:58;;;;;;;11.13;5.68;;;;;;;2.37;100.00;90404.31;5054084;28;20549;-69
2021/12/26 03:34:24;;;;;;;9.00;4.30;;;;;;;2.45;100.00;90405.56;5054469;28;20029;-69
2021/12/26 03:36:52;;;;;;;14.30;5.43;;;;;;;2.44;100.00;90402.16;5054096;28;20555;-69
2021/12/26 03:39:19;;;;;;;7.70;3.80;;;;;;;2.52;100.00;90395.53;5053771;28;20450;-69
2021/12/26 03:41:46;;;;;;;8.95;4.28;;;;;;;2.62;100.00;90385.75;5054348;28;20037;-68
2021/12/26 03:44:12;;;;;;;6.95;3.28;;;;;;;2.65;100.00;90394.91;5054258;28;20028;-69
2021/12/26 03:46:38;;;;;;;7.68;4.40;;;;;;;2.74;100.00;90409.03;5053906;28;20036;-69
2021/12/26 03:49:05;;;;;;;7.88;5.15;;;;;;;2.84;100.00;90400.28;5053816;28;20029;-69
2021/12/26 03:51:33;;;;;;;9.90;5.45;;;;;;;2.94;100.00;90398.38;5054068;28;20167;-69
2021/12/26 03:53:59;;;;;;;9.80;6.80;;;;;;;3.08;100.00;90400.38;5053685;28;20127;-69
2021/12/26 03:56:25;;;;;;;8.82;6.20;;;;;;;3.16;100.00;90394.53;5054083;28;20028;-69
2021/12/26 03:58:50;;;;;;;8.93;5.95;;;;;;;3.18;100.00;90393.19;5053807;28;20056;-68
2021/12/26 04:01:16;;;;;;;8.18;6.28;;;;;;;3.14;100.00;90394.78;5053310;28;20025;-69
2021/12/26 04:03:42;;;;;;;9.00;6.57;;;;;;;3.07;100.00;90401.44;5053754;28;20079;-69
2021/12/26 04:06:07;;;;;;;7.35;5.57;;;;;;;3.18;100.00;90408.19;5053856;28;20380;-68
2021/12/26 04:08:33;;;;;;;13.38;7.47;;;;;;;3.12;100.00;90410.03;5053411;28;20029;-69
2021/12/26 04:10:58;;;;;;;11.05;6.32;;;;;;;3.17;100.00;90415.28;5053626;28;20021;-69
2021/12/26 04:13:24;;;;;;;8.43;5.13;;;;;;;3.17;100.00;90412.66;5053676;28;20021;-69
2021/12/26 04:15:50;;;;;;;5.20;4.07;;;;;;;3.22;100.00;90411.81;5052968;28;20025;-68
2021/12/26 04:18:15;;;;;;;5.43;4.38;;;;;;;3.28;100.00;90413.31;5053638;28;20044;-69
2021/12/26 04:20:41;;;;;;;7.20;4.85;;;;;;;3.38;100.00;90412.47;5053548;28;20024;-69
2021/12/26 04:23:07;;;;;;;6.88;3.95;;;;;;;3.42;100.00;90416.09;5052927;28;20438;-68
2021/12/26 04:25:33;;;;;;;7.28;5.45;;;;;;;3.35;100.00;90407.75;5053507;28;20021;-68
2021/12/26 04:27:59;;;;;;;5.47;4.30;;;;;;;3.43;100.00;90417.66;5052078;28;20033;-68
2021/12/26 04:30:26;;;;;;;3.60;3.22;;;;;;;3.44;100.00;90414.75;5052897;28;20506;-68
2021/12/26 04:32:52;;;;;;;5.00;3.65;;;;;;;3.47;100.00;90408.16;5053344;28;20033;-69
2021/12/26 04:35:19;;;;;;;5.45;3.47;;;;;;;3.41;100.00;90404.00;5053327;28;20104;-68
2021/12/26 04:37:46;;;;;;;5.22;3.30;;;;;;;3.40;100.00;90407.69;5052843;28;20033;-69
2021/12/26 04:40:13;;;;;;;9.38;5.90;;;;;;;3.45;100.00;90415.53;5052825;28;20028;-69
2021/12/26 04:42:41;;;;;;;7.95;4.43;;;;;;;3.38;100.00;90407.97;5053066;28;20055;-68
2021/12/26 04:45:09;;;;;;;7.18;3.63;;;;;;;3.43;100.00;90415.03;5051311;28;20040;-69
2021/12/26 04:47:36;;;;;;;12.02;5.07;;;;;;;3.48;100.00;90407.09;5053064;28;20032;-68
2021/12/26 04:50:11;;;;;;;10.02;5.78;;;;;;;3.57;100.00;90419.34;5052958;28;20036;-69
2021/12/26 04:52:39;;;;;;;29.10;11.80;;;;;;;3.55;100.00;90418.84;5052281;28;20028;-69
2021/12/26 04:55:05;;;;;;;18.95;9.05;;;;;;;3.66;100.00;90414.28;5052915;28;20902;-69
2021/12/26 04:57:31;;;;;;;33.30;14.20;;;;;;;3.69;100.00;90408.47;5052647;28;20035;-69
2021/12/26 04:59:57;;;;;;;8.95;4.82;;;;;;;3.73;100.00;90416.56;5052261;28;20039;-69
2021/12/26 05:02:23;;;;;;;11.70;6.65;;;;;;;3.71;100.00;90424.75;5052768;28;20025;-68
2021/12/26 05:04:48;;;;;;;10.88;6.63;;;;;;;3.53;100.00;90420.97;5052414;28;20031;-69
2021/12/26 05:07:14;;;;;;;9.82;5.47;;;;;;;3.47;100.00;90413.41;5052248;28;20110;-69
2021/12/26 05:09:41;;;;;;;9.77;5.20;;;;;;;3.38;100.00;90429.00;5052537;28;20032;-69
2021/12/26 05:12:07;;;;;;;9.50;5.25;;;;;;;3.37;100.00;90426.66;5052571;28;20028;-68
2021/12/26 05:14:33;;;;;;;8.93;4.25;;;;;;;3.26;100.00;90437.25;5050822;28;20442;-69
2021/12/26 05:16:58;;;;;;;5.60;3.60;;;;;;;3.28;100.00;90431.72;5052193;28;20028;-68
2021/12/26 05:19:44;;;;;;;5.50;3.45;;;;;;;3.22;100.00;90425.75;5052606;28;20037;-68
2021/12/26 05:22:09;;;;;;;5.00;3.38;;;;;;;3.26;100.00;90432.00;5051834;28;20033;-69
2021/12/26 05:24:35;;;;;;;5.10;3.08;;;;;;;3.39;100.00;90435.06;5052385;28;20067;-68
2021/12/26 05:27:01;;;;;;;10.75;5.97;;;;;;;3.54;100.00;90443.59;5052326;28;20065;-69
2021/12/26 05:29:27;;;;;;;15.40;9.25;;;;;;;3.62;100.00;90444.81;5051517;28;20079;-69
2021/12/26 05:31:53;;;;;;;13.63;7.43;;;;;;;3.58;100.00;90441.19;5052192;28;20402;-69
2021/12/26 05:34:19;;;;;;;14.50;7.05;;;;;;;3.51;100.00;90427.59;5052167;28;20036;-68
2021/12/26 05:36:45;;;;;;;9.20;4.82;;;;;;;3.55;100.00;90439.09;5051670;28;20552;-69
2021/12/26 05:39:11;;;;;;;11.63;6.45;;;;;;;3.64;100.00;90440.09;5051643;28;20033;-69
2021/12/26 05:41:38;;;;;;;7.80;5.55;;;;;;;3.69;100.00;90439.25;5051487;28;20029;-69
2021/12/26 05:44:05;;;;;;;4.57;3.50;;;;;;;3.63;100.00;90429.81;5051553;28;20063;-69
2021/12/26 05:46:31;;;;;;;5.80;3.42;;;;;;;3.66;100.00;90435.31;5051927;28;20089;-69
2021/12/26 05:48:56;;;;;;;13.15;5.82;;;;;;;3.72;100.00;90439.47;5051809;28;20056;-68
2021/12/26 05:51:22;;;;;;;9.95;7.18;;;;;;;3.75;100.00;90438.91;5051335;28;20021;-69
2021/12/26 05:53:47;;;;;;;8.05;4.43;;;;;;;3.72;100.00;90447.34;5051453;28;20032;-69
2021/12/26 05:56:13;;;;;;;7.75;4.00;;;;;;;3.70;100.00;90438.97;5051730;28;20035;-69
2021/12/26 05:58:39;;;;;;;6.07;3.38;;;;;;;3.80;100.00;90459.13;5051207;28;20060;-68
2021/12/26 06:01:05;;;;;;;9.23;5.50;;;;;;;3.83;100.00;90454.09;5051495;28;20593;-69
2021/12/26 06:03:30;;;;;;;17.83;9.68;;;;;;;3.96;100.00;90455.28;5051649;28;20060;-68
2021/12/26 06:05:56;;;;;;;23.38;11.20;;;;;;;4.00;100.00;90456.28;5050920;28;20129;-69
2021/12/26 06:08:22;;;;;;;28.23;16.00;;;;;;;3.90;100.00;90456.38;5051348;28;20406;-68
2021/12/26 06:10:48;;;;;;;32.25;16.75;;;;;;;3.82;100.00;90460.41;5051136;28;20040;-68
2021/12/26 06:13:13;;;;;;;51.22;25.80;;;;;;;3.86;100.00;90460.63;5051060;28;20025;-68
2021/12/26 06:15:39;;;;;;;16.95;8.88;;;;;;;3.74;100.00;90461.00;5051410;28;20039;-68
2021/12/26 06:18:04;;;;;;;6.45;4.50;;;;;;;3.71;100.00;90455.53;5056357;28;20045;-70
2021/12/26 06:20:30;;;;;;;11.00;5.30;;;;;;;3.90;100.00;90465.03;5061528;28;20032;-69
2021/12/26 06:22:55;;;;;;;8.70;5.05;;;;;;;4.00;100.00;90453.63;5059793;28;20411;-69
2021/12/26 06:25:21;;;;;;;50.33;26.13;;;;;;;3.96;100.00;90439.47;5060596;28;20035;-69
2021/12/26 06:27:47;;;;;;;10.85;5.93;;;;;;;3.93;100.00;90450.53;5061587;28;20475;-69
2021/12/26 06:30:14;;;;;;;8.65;5.07;;;;;;;4.04;100.00;90445.97;5057564;28;20025;-69
2021/12/26 06:32:39;;;;;;;14.68;8.10;;;;;;;4.00;100.00;90443.13;5060789;28;20017;-69
2021/12/26 06:35:05;;;;;;;17.77;9.45;;;;;;;4.02;100.00;90433.09;5061192;28;20130;-72
2021/12/26 06:37:31;;;;;;;13.40;6.35;;;;;;;4.10;100.00;90429.03;5059116;28;20547;-69
2021/12/26 06:39:59;;;;;;;11.45;6.10;;;;;;;4.21;100.00;90427.84;5061009;28;20108;-69
2021/12/26 06:42:25;;;;;;;10.18;6.47;;;;;;;4.22;100.00;90427.56;5060995;28;20077;-69
2021/12/26 06:44:51;;;;;;;12.63;7.35;;;;;;;4.30;100.00;90428.03;5058683;28;20460;-69
2021/12/26 06:47:17;;;;;;;20.58;9.90;;;;;;;4.36;100.00;90424.25;5061115;28;20052;-69
2021/12/26 06:49:43;;;;;;;17.52;11.52;;;;;;;4.42;100.00;90426.56;5060734;28;20028;-69
2021/12/26 06:52:09;;;;;;;38.80;21.65;;;;;;;4.47;100.00;90423.84;5061496;28;20029;-69
2021/12/26 06:54:36;;;;;;;24.77;17.10;;;;;;;4.47;100.00;90429.13;5065494;28;20024;-68
2021/12/26 06:57:03;;;;;;;37.13;20.65;;;;;;;4.41;100.00;90414.44;5063297;28;20384;-69
2021/12/26 06:59:29;;;;;;;38.70;22.17;;;;;;;4.65;100.00;90419.66;5062575;28;20070;-68
2021/12/26 07:01:55;;;;;;;44.50;27.15;;;;;;;4.81;100.00;90428.13;5060035;28;20029;-68
2021/12/26 07:04:20;;;;;;;62.22;37.40;;;;;;;4.88;100.00;90410.09;5054860;28;20029;-69
2021/12/26 07:06:46;;;;;;;50.35;31.30;;;;;;;4.79;100.00;90414.44;5054266;28;20103;-68
2021/12/26 07:09:12;;;;;;;49.03;29.27;;;;;;;4.96;100.00;90411.31;5054284;28;20064;-69
2021/12/26 07:11:38;;;;;;;52.80;31.00;;;;;;;5.02;100.00;90404.88;5074506;28;20024;-68
2021/12/26 07:14:03;;;;;;;52.58;32.47;;;;;;;5.18;100.00;90402.78;5074321;28;20141;-68
2021/12/26 07:16:29;;;;;;;32.75;19.88;;;;;;;5.21;100.00;90399.59;5074662;28;20021;-69
2021/12/26 07:18:55;;;;;;;20.15;11.98;;;;;;;5.26;100.00;90392.38;5073314;28;20073;-68
2021/12/26 07:21:21;;;;;;;34.30;20.02;;;;;;;5.49;100.00;90410.97;5064384;28;20025;-68
2021/12/26 07:23:46;;;;;;;67.88;41.25;;;;;;;5.80;95.64;90416.50;5062842;28;20028;-69
2021/12/26 07:26:12;;;;;;;51.75;29.85;;;;;;;5.83;94.03;90410.63;5065698;28;20020;-69
2021/12/26 07:28:37;;;;;;;50.17;29.63;;;;;;;6.00;92.97;90416.16;5067634;28;20020;-68
2021/12/26 07:31:04;;;;;;;98.13;61.38;;;;;;;6.17;92.53;90429.56;5068684;28;20028;-68
2021/12/26 07:33:29;;;;;;;51.95;35.17;;;;;;;6.36;91.25;90424.16;5064161;28;20024;-69
2021/12/26 07:35:55;;;;;;;54.58;37.95;;;;;;;6.57;88.92;90429.81;5061990;28;20040;-69
2021/12/26 07:38:20;;;;;;;58.83;38.22;;;;;;;6.67;87.07;90426.97;5058453;28;20024;-68
2021/12/26 07:40:47;;;;;;;39.83;27.45;;;;;;;6.85;85.98;90446.41;5059732;28;20016;-67
2021/12/26 07:43:13;;;;;;;41.05;27.38;;;;;;;6.68;85.68;90447.03;5062669;28;20032;-67
2021/12/26 07:45:39;;;;;;;58.88;38.45;;;;;;;6.64;86.27;90446.06;5064591;28;20031;-67
2021/12/26 07:48:04;;;;;;;83.00;54.05;;;;;;;6.47;87.29;90451.16;5064598;28;20092;-67
2021/12/26 07:50:31;;;;;;;39.78;23.13;;;;;;;6.18;89.98;90454.13;5062759;28;20475;-66
2021/12/26 07:53:03;;;;;;;27.40;16.65;;;;;;;6.34;89.48;90462.53;5058736;28;20021;-67
2021/12/26 07:55:28;;;;;;;21.30;14.30;;;;;;;6.22;89.71;90461.16;5053228;28;20112;-65
2021/12/26 07:57:54;;;;;;;17.48;11.73;;;;;;;6.14;91.22;90467.09;5065809;28;20119;-67
2021/12/26 08:00:20;;;;;;;32.88;18.55;;;;;;;6.22;90.12;90470.94;5068175;28;20035;-65
2021/12/26 08:02:46;;;;;;;43.03;27.58;;;;;;;6.39;89.76;90467.69;5065153;28;20028;-67
2021/12/26 08:05:12;;;;;;;52.70;31.83;;;;;;;6.55;88.18;90467.09;5062091;28;20029;-67
2021/12/26 08:07:37;;;;;;;42.60;25.50;;;;;;;6.47;87.54;90462.53;5058820;28;20055;-66
2021/12/26 08:10:04;;;;;;;41.90;26.20;;;;;;;6.34;89.58;90473.09;5056940;28;20483;-68
2021/12/26 08:12:29;;;;;;;41.90;25.08;;;;;;;6.62;87.70;90474.63;5062024;28;20029;-66
2021/12/26 08:14:55;;;;;;;38.53;22.95;;;;;;;6.30;89.37;90470.22;5067323;28;20024;-67
2021/12/26 08:17:20;;;;;;;47.95;26.67;;;;;;;6.56;89.68;90470.53;5073082;28;20039;-66
2021/12/26 08:19:46;;;;;;;80.10;44.53;;;;;;;6.53;88.71;90461.34;5072505;28;20024;-66
2021/12/26 08:22:12;;;;;;;136.80;75.60;;;;;;;6.31;90.51;90469.16;5072573;28;20035;-67
2021/12/26 08:24:37;;;;;;;110.70;64.00;;;;;;;6.68;90.38;90462.09;5072928;28;20082;-66
2021/12/26 08:27:03;;;;;;;87.65;48.97;;;;;;;7.03;87.24;90476.44;5072203;28;20024;-66
2021/12/26 08:29:28;;;;;;;88.15;50.08;;;;;;;7.32;84.43;90479.47;5072877;28;20127;-67
2021/12/26 08:31:56;;;;;;;85.22;51.25;;;;;;;7.28;84.35;90481.16;5072798;28;20478;-67
2021/12/26 08:34:23;;;;;;;87.45;51.35;;;;;;;7.64;83.78;90483.00;5071991;28;20029;-68
2021/12/26 08:36:55;;;;;;;94.88;57.38;;;;;;;7.97;81.39;90483.50;5072574;28;20029;-67
2021/12/26 08:39:20;;;;;;;87.05;54.00;;;;;;;7.38;82.40;90496.78;5072628;28;20078;-67
2021/12/26 08:41:46;;;;;;;93.38;58.95;;;;;;;7.36;83.29;90483.09;5071847;28;20494;-67
2021/12/26 08:44:16;;;;;;;97.20;59.50;;;;;;;7.47;83.32;90483.66;5072706;28;20111;-66
2021/12/26 08:46:46;;;;;;;103.03;65.35;;;;;;;7.78;82.67;90473.13;5072352;28;20040;-66
2021/12/26 08:49:13;;;;;;;62.10;42.92;;;;;;;8.04;79.60;90460.78;5070813;28;20051;-67
2021/12/26 08:51:39;;;;;;;99.15;61.33;;;;;;;7.70;79.62;90461.38;5072573;28;20083;-66
2021/12/26 08:54:04;;;;;;;85.88;51.85;;;;;;;7.77;80.12;90460.97;5072524;28;20509;-66
2021/12/26 08:56:30;;;;;;;94.22;59.30;;;;;;;7.72;79.03;90459.19;5070837;28;20085;-66
2021/12/26 08:58:56;;;;;;;98.70;61.85;;;;;;;7.61;80.21;90446.53;5071658;28;20056;-67
2021/12/26 09:01:22;;;;;;;91.05;57.78;;;;;;;7.55;81.16;90442.44;5072002;28;20036;-68
2021/12/26 09:03:47;;;;;;;91.35;56.92;;;;;;;7.65;84.64;90427.09;5071852;28;20029;-68
2021/12/26 09:06:13;;;;;;;116.88;64.55;;;;;;;8.15;80.42;90436.69;5072262;28;20031;-66
2021/12/26 09:08:39;;;;;;;136.88;80.13;;;;;;;8.53;76.57;90435.16;5072235;28;20071;-70
2021/12/26 09:11:04;;;;;;;107.55;63.90;;;;;;;8.46;76.77;90410.97;5071454;28;20059;-70
2021/12/26 09:13:30;;;;;;;117.63;67.32;;;;;;;8.99;74.39;90410.75;5071624;28;20031;-70
2021/12/26 09:15:56;;;;;;;117.30;69.85;;;;;;;9.34;72.56;90410.75;5072012;28;20086;-67
2021/12/26 09:18:22;;;;;;;116.00;68.50;;;;;;;9.20;72.25;90399.53;5071635;28;20047;-67
2021/12/26 09:20:47;;;;;;;142.57;89.80;;;;;;;9.52;71.47;90420.28;5071138;28;20020;-68
2021/12/26 09:23:13;;;;;;;144.75;89.20;;;;;;;9.38;72.24;90408.25;5071154;28;20028;-66
2021/12/26 09:25:38;;;;;;;148.13;89.32;;;;;;;9.63;71.83;90394.19;5070708;28;20025;-69
2021/12/26 09:28:04;;;;;;;136.20;78.40;;;;;;;9.77;70.89;90381.47;5071918;28;20023;-67
2021/12/26 09:30:30;;;;;;;121.60;70.93;;;;;;;10.15;69.34;90373.56;5071449;28;20029;-67
2021/12/26 09:32:56;;;;;;;115.07;69.35;;;;;;;9.76;69.62;90369.28;5071490;28;20027;-67
2021/12/26 09:35:23;;;;;;;116.18;71.28;;;;;;;10.16;69.22;90379.66;5071704;28;20498;-67
2021/12/26 09:37:49;;;;;;;138.90;86.35;;;;;;;10.19;67.86;90373.69;5071269;28;20050;-69
2021/12/26 09:40:16;;;;;;;153.65;96.68;;;;;;;10.29;67.88;90370.72;5071168;28;20020;-66
2021/12/26 09:42:44;;;;;;;160.30;103.53;;;;;;;10.52;67.66;90376.53;5070960;28;20028;-67
2021/12/26 09:45:09;;;;;;;183.02;116.20;;;;;;;10.78;66.49;90369.19;5071477;28;20055;-66
2021/12/26 09:47:39;;;;;;;241.93;151.35;;;;;;;9.44;69.33;90378.56;5071513;28;20033;-67
2021/12/26 09:50:08;;;;;;;180.70;102.60;;;;;;;8.20;72.93;90380.91;5070742;28;20023;-66
2021/12/26 09:52:33;;;;;;;72.05;35.22;;;;;;;7.59;75.20;90390.47;5071127;28;20012;-67
2021/12/26 09:55:00;;;;;;;53.47;24.63;;;;;;;7.56;76.16;90391.06;5070668;28;20043;-66
2021/12/26 09:57:27;;;;;;;40.63;18.17;;;;;;;8.15;75.00;90370.47;5070661;28;20020;-66
2021/12/26 09:59:53;;;;;;;48.38;24.85;;;;;;;9.03;72.16;90387.03;5071119;28;20052;-68
2021/12/26 10:02:19;;;;;;;48.10;26.80;;;;;;;9.60;68.83;90398.22;5069992;28;20071;-67
2021/12/26 10:04:48;;;;;;;61.45;35.67;;;;;;;9.48;68.89;90395.44;5070355;28;20032;-67
2021/12/26 10:07:19;;;;;;;44.60;28.10;;;;;;;9.86;68.23;90397.41;5071053;28;20028;-70
2021/12/26 10:09:48;;;;;;;45.17;28.88;;;;;;;9.93;67.07;90400.34;5070662;28;20029;-68
2021/12/26 10:12:15;;;;;;;45.15;29.95;;;;;;;9.30;69.26;90389.34;5070590;28;20027;-70
2021/12/26 10:14:43;;;;;;;69.78;45.17;;;;;;;9.85;67.96;90398.50;5070903;28;20028;-68
2021/12/26 10:17:12;;;;;;;83.93;52.85;;;;;;;9.81;68.18;90392.25;5070894;28;20040;-68
2021/12/26 10:19:46;;;;;;;129.63;85.28;;;;;;;10.16;67.64;90403.56;5070469;28;20039;-69
2021/12/26 10:22:15;;;;;;;221.77;147.98;;;;;;;10.62;65.42;90407.31;5070813;28;20512;-69
2021/12/26 10:24:49;;;;;;;218.65;141.50;;;;;;;10.76;65.77;90402.53;5070598;28;20082;-67
2021/12/26 10:27:30;;;;;;;197.98;130.02;;;;;;;11.15;63.86;90406.66;5072244;28;20047;-67
2021/12/26 10:29:58;;;;;;;238.25;156.23;;;;;;;10.26;65.83;90382.00;5070979;28;20700;-68
2021/12/26 10:32:33;;;;;;;234.65;147.18;;;;;;;10.10;67.15;90399.53;5070374;28;20020;-68
2021/12/26 10:35:09;;;;;;;219.00;146.07;;;;;;;9.94;68.23;90390.50;5070591;28;20027;-67
2021/12/26 10:37:40;;;;;;;115.95;77.38;;;;;;;10.55;65.77;90393.72;5070742;28;20029;-68
2021/12/26 10:40:15;;;;;;;107.82;71.78;;;;;;;10.93;65.40;90405.09;5069642;28;20496;-68
2021/12/26 10:42:49;;;;;;;143.77;96.80;;;;;;;10.98;64.90;90412.09;5070831;28;20498;-70
2021/12/26 10:45:17;;;;;;;135.25;92.22;;;;;;;10.57;66.70;90407.47;5070853;28;20460;-69
2021/12/26 10:47:50;;;;;;;128.05;82.85;;;;;;;10.59;66.40;90418.59;5069060;28;20493;-67
2021/12/26 10:50:19;;;;;;;158.68;104.82;;;;;;;10.64;66.71;90421.06;5070512;28;20499;-67
2021/12/26 10:53:14;;;;;;;154.70;103.97;;;;;;;10.58;66.52;90444.41;5068711;28;20116;-67
2021/12/26 10:55:42;;;;;;;141.77;97.68;;;;;;;10.17;66.88;90432.47;5041430;28;20816;-69
2021/12/26 10:58:11;;;;;;;121.85;85.65;;;;;;;10.35;66.45;90427.13;5050551;28;20049;-69
2021/12/26 11:00:45;;;;;;;70.20;50.45;;;;;;;10.49;66.55;90412.53;5050602;28;20039;-68
2021/12/26 11:03:24;;;;;;;74.85;53.00;;;;;;;11.02;65.58;90427.09;5050181;28;20029;-68
2021/12/26 11:05:55;;;;;;;83.35;56.88;;;;;;;11.35;63.38;90427.19;5050344;28;20053;-69
2021/12/26 11:08:34;;;;;;;67.82;46.95;;;;;;;11.32;63.03;90432.38;5050310;28;20032;-68
2021/12/26 11:11:09;;;;;;;73.80;51.55;;;;;;;11.37;62.88;90429.53;5064671;28;20523;-68
2021/12/26 11:13:36;;;;;;;75.85;45.50;;;;;;;11.19;63.68;90430.75;5069756;28;20028;-70
2021/12/26 11:16:06;;;;;;;69.45;48.00;;;;;;;11.75;62.15;90442.69;5066283;28;20507;-66
2021/12/26 11:18:33;;;;;;;70.15;46.15;;;;;;;11.41;62.95;90451.75;5057130;28;20470;-68
2021/12/26 11:21:02;;;;;;;72.13;49.47;;;;;;;11.76;63.41;90454.13;5057211;28;20028;-67
2021/12/26 11:23:33;;;;;;;102.18;65.97;;;;;;;12.29;62.00;90456.78;5069709;28;20142;-68
2021/12/26 11:26:15;;;;;;;93.25;63.35;;;;;;;12.69;60.11;90456.19;5054255;28;20028;-68
2021/12/26 11:28:44;;;;;;;130.98;87.93;;;;;;;12.78;60.13;90454.22;5055646;28;20028;-67
2021/12/26 11:31:12;;;;;;;124.03;81.18;;;;;;;13.12;58.73;90449.53;5056436;28;20075;-66